sensor_id;sensor_type;location;lat;lon;timestamp;temperature;humidity
67502;SHT30;54349;52.528;19.760;2023-10-08T00:01:22;21.58;52.77
67502;SHT30;54349;52.528;19.760;2023-10-08T00:03:50;21.73;54.13
67502;SHT30;54349;52.528;19.760;2023-10-08T00:06:20;22.20;54.10
67502;SHT30;54349;52.528;19.760;2023-10-08T00:08:50;22.49;52.35
67502;SHT30;54349;52.528;19.760;2023-10-08T00:11:19;22.18;51.95
67502;SHT30;54349;52.528;19.760;2023-10-08T00:13:51;21.80;52.19
67502;SHT30;54349;52.528;19.760;2023-10-08T00:16:23;21.50;52.08
67502;SHT30;54349;52.528;19.760;2023-10-08T00:18:51;21.30;52.71
67502;SHT30;54349;52.528;19.760;2023-10-08T00:21:20;21.59;53.88
67502;SHT30;54349;52.528;19.760;2023-10-08T00:23:56;22.10;53.76
67502;SHT30;54349;52.528;19.760;2023-10-08T00:26:28;22.50;52.40
67502;SHT30;54349;52.528;19.760;2023-10-08T00:29:00;22.26;51.69
67502;SHT30;54349;52.528;19.760;2023-10-08T00:31:50;21.80;52.03
67502;SHT30;54349;52.528;19.760;2023-10-08T00:34:19;21.52;52.02
67502;SHT30;54349;52.528;19.760;2023-10-08T00:36:48;21.30;52.47
67502;SHT30;54349;52.528;19.760;2023-10-08T00:39:17;21.56;53.79
67502;SHT30;54349;52.528;19.760;2023-10-08T00:41:51;22.07;53.61
67502;SHT30;54349;52.528;19.760;2023-10-08T00:44:32;22.45;52.13
67502;SHT30;54349;52.528;19.760;2023-10-08T00:47:19;22.13;51.78
67502;SHT30;54349;52.528;19.760;2023-10-08T00:49:57;21.74;52.01
67502;SHT30;54349;52.528;19.760;2023-10-08T00:52:36;21.43;51.80
67502;SHT30;54349;52.528;19.760;2023-10-08T00:55:13;21.21;51.78
67502;SHT30;54349;52.528;19.760;2023-10-08T00:57:59;20.98;51.79
67502;SHT30;54349;52.528;19.760;2023-10-08T01:00:36;20.79;52.13
67502;SHT30;54349;52.528;19.760;2023-10-08T01:03:10;21.02;53.75
67502;SHT30;54349;52.528;19.760;2023-10-08T01:05:45;21.60;53.70
67502;SHT30;54349;52.528;19.760;2023-10-08T01:08:17;22.11;53.28
67502;SHT30;54349;52.528;19.760;2023-10-08T01:10:51;22.17;51.44
67502;SHT30;54349;52.528;19.760;2023-10-08T01:13:30;21.74;52.02
67502;SHT30;54349;52.528;19.760;2023-10-08T01:16:05;21.47;52.89
67502;SHT30;54349;52.528;19.760;2023-10-08T01:18:36;21.78;53.71
67502;SHT30;54349;52.528;19.760;2023-10-08T01:21:10;22.25;53.40
67502;SHT30;54349;52.528;19.760;2023-10-08T01:24:02;22.52;51.41
67502;SHT30;54349;52.528;19.760;2023-10-08T01:26:36;22.09;51.76
67502;SHT30;54349;52.528;19.760;2023-10-08T01:29:09;22.07;53.15
67502;SHT30;54349;52.528;19.760;2023-10-08T01:31:49;22.43;52.99
67502;SHT30;54349;52.528;19.760;2023-10-08T01:34:18;22.72;52.46
67502;SHT30;54349;52.528;19.760;2023-10-08T01:36:55;22.59;50.96
67502;SHT30;54349;52.528;19.760;2023-10-08T01:39:33;22.42;52.50
67502;SHT30;54349;52.528;19.760;2023-10-08T01:42:04;22.62;52.39
67502;SHT30;54349;52.528;19.760;2023-10-08T01:44:35;22.82;52.16
67502;SHT30;54349;52.528;19.760;2023-10-08T01:47:05;23.00;51.52
67502;SHT30;54349;52.528;19.760;2023-10-08T01:49:36;22.77;50.73
67502;SHT30;54349;52.528;19.760;2023-10-08T01:52:09;22.67;52.05
67502;SHT30;54349;52.528;19.760;2023-10-08T01:54:50;22.85;51.91
67502;SHT30;54349;52.528;19.760;2023-10-08T01:57:21;23.00;51.78
67502;SHT30;54349;52.528;19.760;2023-10-08T01:59:50;23.09;50.56
67502;SHT30;54349;52.528;19.760;2023-10-08T02:02:19;22.73;50.77
67502;SHT30;54349;52.528;19.760;2023-10-08T02:04:51;22.69;51.79
67502;SHT30;54349;52.528;19.760;2023-10-08T02:07:20;22.85;51.38
67502;SHT30;54349;52.528;19.760;2023-10-08T02:09:48;22.96;51.05
67502;SHT30;54349;52.528;19.760;2023-10-08T02:12:16;23.05;50.39
67502;SHT30;54349;52.528;19.760;2023-10-08T02:14:44;22.79;49.81
67502;SHT30;54349;52.528;19.760;2023-10-08T02:17:13;22.64;50.98
67502;SHT30;54349;52.528;19.760;2023-10-08T02:19:41;22.74;50.60
67502;SHT30;54349;52.528;19.760;2023-10-08T02:22:11;22.87;50.45
67502;SHT30;54349;52.528;19.760;2023-10-08T02:24:41;22.96;50.37
67502;SHT30;54349;52.528;19.760;2023-10-08T02:27:14;23.05;49.97
67502;SHT30;54349;52.528;19.760;2023-10-08T02:29:45;22.82;49.06
67502;SHT30;54349;52.528;19.760;2023-10-08T02:32:14;22.60;50.32
67502;SHT30;54349;52.528;19.760;2023-10-08T02:34:45;22.69;50.38
67502;SHT30;54349;52.528;19.760;2023-10-08T02:37:14;22.81;50.10
67502;SHT30;54349;52.528;19.760;2023-10-08T02:39:46;22.90;50.02
67502;SHT30;54349;52.528;19.760;2023-10-08T02:42:16;22.98;49.86
67502;SHT30;54349;52.528;19.760;2023-10-08T02:44:46;23.01;49.18
67502;SHT30;54349;52.528;19.760;2023-10-08T02:47:15;22.68;48.99
67502;SHT30;54349;52.528;19.760;2023-10-08T02:49:49;22.56;49.99
67502;SHT30;54349;52.528;19.760;2023-10-08T02:52:18;22.64;49.60
67502;SHT30;54349;52.528;19.760;2023-10-08T02:54:50;22.73;49.48
67502;SHT30;54349;52.528;19.760;2023-10-08T02:57:21;22.79;49.31
67502;SHT30;54349;52.528;19.760;2023-10-08T02:59:52;22.83;48.79
67502;SHT30;54349;52.528;19.760;2023-10-08T03:02:22;22.87;48.67
67502;SHT30;54349;52.528;19.760;2023-10-08T03:04:55;22.67;47.33
67502;SHT30;54349;52.528;19.760;2023-10-08T03:07:24;22.36;48.53
67502;SHT30;54349;52.528;19.760;2023-10-08T03:10:07;22.42;48.56
67502;SHT30;54349;52.528;19.760;2023-10-08T03:12:56;22.52;48.12
67502;SHT30;54349;52.528;19.760;2023-10-08T03:15:25;22.56;47.96
67502;SHT30;54349;52.528;19.760;2023-10-08T03:18:01;22.60;47.62
67502;SHT30;54349;52.528;19.760;2023-10-08T03:20:38;22.64;47.26
67502;SHT30;54349;52.528;19.760;2023-10-08T03:23:14;22.66;47.35
67502;SHT30;54349;52.528;19.760;2023-10-08T03:25:52;22.70;47.09
67502;SHT30;54349;52.528;19.760;2023-10-08T03:28:38;22.73;47.01
67502;SHT30;54349;52.528;19.760;2023-10-08T03:31:09;22.74;46.70
67502;SHT30;54349;52.528;19.760;2023-10-08T03:33:46;22.70;45.75
67502;SHT30;54349;52.528;19.760;2023-10-08T03:36:21;22.27;46.28
67502;SHT30;54349;52.528;19.760;2023-10-08T03:38:50;22.17;46.94
67502;SHT30;54349;52.528;19.760;2023-10-08T03:41:23;22.22;46.70
67502;SHT30;54349;52.528;19.760;2023-10-08T03:43:56;22.28;46.62
67502;SHT30;54349;52.528;19.760;2023-10-08T03:46:40;22.33;46.28
67502;SHT30;54349;52.528;19.760;2023-10-08T03:49:15;22.37;46.38
67502;SHT30;54349;52.528;19.760;2023-10-08T03:51:53;22.41;46.27
67502;SHT30;54349;52.528;19.760;2023-10-08T03:54:25;22.44;46.21
67502;SHT30;54349;52.528;19.760;2023-10-08T03:57:03;22.47;46.12
67502;SHT30;54349;52.528;19.760;2023-10-08T03:59:34;22.46;46.17
67502;SHT30;54349;52.528;19.760;2023-10-08T04:02:08;22.47;45.94
67502;SHT30;54349;52.528;19.760;2023-10-08T04:04:37;22.47;45.65
67502;SHT30;54349;52.528;19.760;2023-10-08T04:07:25;22.45;45.58
67502;SHT30;54349;52.528;19.760;2023-10-08T04:09:58;22.44;45.42
67502;SHT30;54349;52.528;19.760;2023-10-08T04:12:49;22.43;45.50
67502;SHT30;54349;52.528;19.760;2023-10-08T04:15:21;22.43;45.41
67502;SHT30;54349;52.528;19.760;2023-10-08T04:17:52;22.43;45.52
67502;SHT30;54349;52.528;19.760;2023-10-08T04:20:21;22.44;45.49
67502;SHT30;54349;52.528;19.760;2023-10-08T04:23:02;22.44;45.56
67502;SHT30;54349;52.528;19.760;2023-10-08T04:25:41;22.45;45.51
67502;SHT30;54349;52.528;19.760;2023-10-08T04:28:12;22.44;45.51
67502;SHT30;54349;52.528;19.760;2023-10-08T04:30:47;22.44;45.53
67502;SHT30;54349;52.528;19.760;2023-10-08T04:33:16;22.44;45.41
67502;SHT30;54349;52.528;19.760;2023-10-08T04:35:48;22.42;45.29
67502;SHT30;54349;52.528;19.760;2023-10-08T04:38:20;22.41;45.43
67502;SHT30;54349;52.528;19.760;2023-10-08T04:40:56;22.40;45.38
67502;SHT30;54349;52.528;19.760;2023-10-08T04:43:30;22.39;45.51
67502;SHT30;54349;52.528;19.760;2023-10-08T04:46:02;22.40;45.74
67502;SHT30;54349;52.528;19.760;2023-10-08T04:48:46;22.40;45.49
67502;SHT30;54349;52.528;19.760;2023-10-08T04:51:15;22.39;45.34
67502;SHT30;54349;52.528;19.760;2023-10-08T04:53:46;22.36;45.19
67502;SHT30;54349;52.528;19.760;2023-10-08T04:56:15;22.34;45.38
67502;SHT30;54349;52.528;19.760;2023-10-08T04:58:47;22.22;45.03
67502;SHT30;54349;52.528;19.760;2023-10-08T05:01:18;21.85;45.85
67502;SHT30;54349;52.528;19.760;2023-10-08T05:03:58;21.83;46.28
67502;SHT30;54349;52.528;19.760;2023-10-08T05:06:27;21.88;46.16
67502;SHT30;54349;52.528;19.760;2023-10-08T05:09:06;21.92;45.80
67502;SHT30;54349;52.528;19.760;2023-10-08T05:11:50;21.95;45.90
67502;SHT30;54349;52.528;19.760;2023-10-08T05:14:24;21.97;45.67
67502;SHT30;54349;52.528;19.760;2023-10-08T05:17:02;21.98;45.56
67502;SHT30;54349;52.528;19.760;2023-10-08T05:19:40;21.99;45.55
67502;SHT30;54349;52.528;19.760;2023-10-08T05:22:24;22.01;45.82
67502;SHT30;54349;52.528;19.760;2023-10-08T05:25:00;22.01;45.62
67502;SHT30;54349;52.528;19.760;2023-10-08T05:27:57;22.03;45.79
67502;SHT30;54349;52.528;19.760;2023-10-08T05:30:28;22.04;45.90
67502;SHT30;54349;52.528;19.760;2023-10-08T05:33:27;22.05;45.83
67502;SHT30;54349;52.528;19.760;2023-10-08T05:36:18;22.07;45.93
67502;SHT30;54349;52.528;19.760;2023-10-08T05:38:55;22.07;46.12
67502;SHT30;54349;52.528;19.760;2023-10-08T05:41:32;22.08;46.20
67502;SHT30;54349;52.528;19.760;2023-10-08T05:44:19;22.09;46.02
67502;SHT30;54349;52.528;19.760;2023-10-08T05:46:48;22.07;45.71
67502;SHT30;54349;52.528;19.760;2023-10-08T05:49:24;22.07;45.79
67502;SHT30;54349;52.528;19.760;2023-10-08T05:52:00;22.06;45.67
67502;SHT30;54349;52.528;19.760;2023-10-08T05:54:32;22.04;45.29
67502;SHT30;54349;52.528;19.760;2023-10-08T05:57:05;22.02;45.26
67502;SHT30;54349;52.528;19.760;2023-10-08T05:59:40;22.02;45.27
67502;SHT30;54349;52.528;19.760;2023-10-08T06:02:30;21.99;44.77
67502;SHT30;54349;52.528;19.760;2023-10-08T06:05:07;21.97;44.86
67502;SHT30;54349;52.528;19.760;2023-10-08T06:10:27;21.96;45.56
67502;SHT30;54349;52.528;19.760;2023-10-08T06:15:47;21.98;45.49
67502;SHT30;54349;52.528;19.760;2023-10-08T06:18:33;21.98;45.74
67502;SHT30;54349;52.528;19.760;2023-10-08T06:21:04;21.97;45.46
67502;SHT30;54349;52.528;19.760;2023-10-08T06:23:39;21.96;45.65
67502;SHT30;54349;52.528;19.760;2023-10-08T06:26:10;21.97;45.82
67502;SHT30;54349;52.528;19.760;2023-10-08T06:28:39;21.97;45.93
67502;SHT30;54349;52.528;19.760;2023-10-08T06:31:09;21.96;45.73
67502;SHT30;54349;52.528;19.760;2023-10-08T06:33:40;21.96;45.79
67502;SHT30;54349;52.528;19.760;2023-10-08T06:36:10;21.96;46.01
67502;SHT30;54349;52.528;19.760;2023-10-08T06:38:41;21.97;46.16
67502;SHT30;54349;52.528;19.760;2023-10-08T06:41:17;21.97;45.85
67502;SHT30;54349;52.528;19.760;2023-10-08T06:44:17;21.97;45.99
67502;SHT30;54349;52.528;19.760;2023-10-08T06:46:46;21.97;46.18
67502;SHT30;54349;52.528;19.760;2023-10-08T06:49:16;21.97;46.12
67502;SHT30;54349;52.528;19.760;2023-10-08T06:51:46;21.97;46.07
67502;SHT30;54349;52.528;19.760;2023-10-08T06:54:16;21.97;46.17
67502;SHT30;54349;52.528;19.760;2023-10-08T06:56:45;21.96;45.93
67502;SHT30;54349;52.528;19.760;2023-10-08T06:59:20;21.97;46.11
67502;SHT30;54349;52.528;19.760;2023-10-08T07:01:53;21.95;46.12
67502;SHT30;54349;52.528;19.760;2023-10-08T07:04:21;21.95;46.17
67502;SHT30;54349;52.528;19.760;2023-10-08T07:06:51;21.95;46.00
67502;SHT30;54349;52.528;19.760;2023-10-08T07:09:22;21.94;45.67
67502;SHT30;54349;52.528;19.760;2023-10-08T07:11:52;21.92;45.73
67502;SHT30;54349;52.528;19.760;2023-10-08T07:14:27;21.91;45.51
67502;SHT30;54349;52.528;19.760;2023-10-08T07:16:57;21.90;45.20
67502;SHT30;54349;52.528;19.760;2023-10-08T07:19:31;21.88;45.22
67502;SHT30;54349;52.528;19.760;2023-10-08T07:22:09;21.86;44.46
67502;SHT30;54349;52.528;19.760;2023-10-08T07:24:51;21.83;44.39
67502;SHT30;54349;52.528;19.760;2023-10-08T07:27:20;21.82;44.43
67502;SHT30;54349;52.528;19.760;2023-10-08T07:29:50;21.80;44.03
67502;SHT30;54349;52.528;19.760;2023-10-08T07:32:18;21.77;44.32
67502;SHT30;54349;52.528;19.760;2023-10-08T07:34:47;21.77;44.43
67502;SHT30;54349;52.528;19.760;2023-10-08T07:37:16;21.77;44.44
67502;SHT30;54349;52.528;19.760;2023-10-08T07:39:44;21.75;44.29
67502;SHT30;54349;52.528;19.760;2023-10-08T07:42:15;21.74;44.31
67502;SHT30;54349;52.528;19.760;2023-10-08T07:44:43;21.72;44.32
67502;SHT30;54349;52.528;19.760;2023-10-08T07:47:11;21.71;44.56
67502;SHT30;54349;52.528;19.760;2023-10-08T07:49:42;21.71;44.80
67502;SHT30;54349;52.528;19.760;2023-10-08T07:52:11;21.71;45.39
67502;SHT30;54349;52.528;19.760;2023-10-08T07:54:45;21.71;45.05
67502;SHT30;54349;52.528;19.760;2023-10-08T07:57:13;21.71;45.23
67502;SHT30;54349;52.528;19.760;2023-10-08T07:59:47;21.72;45.72
67502;SHT30;54349;52.528;19.760;2023-10-08T08:02:16;21.73;45.24
67502;SHT30;54349;52.528;19.760;2023-10-08T08:04:50;21.72;45.68
67502;SHT30;54349;52.528;19.760;2023-10-08T08:07:21;21.73;45.70
67502;SHT30;54349;52.528;19.760;2023-10-08T08:09:50;21.73;46.04
67502;SHT30;54349;52.528;19.760;2023-10-08T08:12:27;21.74;45.70
67502;SHT30;54349;52.528;19.760;2023-10-08T08:14:56;21.72;45.12
67502;SHT30;54349;52.528;19.760;2023-10-08T08:17:25;21.70;45.04
67502;SHT30;54349;52.528;19.760;2023-10-08T08:19:54;21.67;44.36
67502;SHT30;54349;52.528;19.760;2023-10-08T08:22:23;21.65;44.61
67502;SHT30;54349;52.528;19.760;2023-10-08T08:25:00;21.65;44.52
67502;SHT30;54349;52.528;19.760;2023-10-08T08:27:44;21.63;44.47
67502;SHT30;54349;52.528;19.760;2023-10-08T08:30:18;21.62;44.36
67502;SHT30;54349;52.528;19.760;2023-10-08T08:32:48;21.61;44.05
67502;SHT30;54349;52.528;19.760;2023-10-08T08:35:20;21.59;44.25
67502;SHT30;54349;52.528;19.760;2023-10-08T08:37:49;21.58;43.69
67502;SHT30;54349;52.528;19.760;2023-10-08T08:40:18;21.57;43.84
67502;SHT30;54349;52.528;19.760;2023-10-08T08:42:49;21.57;44.18
67502;SHT30;54349;52.528;19.760;2023-10-08T08:45:35;21.57;44.51
67502;SHT30;54349;52.528;19.760;2023-10-08T08:48:09;21.56;44.63
67502;SHT30;54349;52.528;19.760;2023-10-08T08:50:39;21.58;44.54
67502;SHT30;54349;52.528;19.760;2023-10-08T08:53:09;21.57;44.21
67502;SHT30;54349;52.528;19.760;2023-10-08T08:55:38;21.56;44.34
67502;SHT30;54349;52.528;19.760;2023-10-08T08:58:07;21.55;44.11
67502;SHT30;54349;52.528;19.760;2023-10-08T09:00:39;21.55;44.13
67502;SHT30;54349;52.528;19.760;2023-10-08T09:03:09;21.55;44.45
67502;SHT30;54349;52.528;19.760;2023-10-08T09:05:41;21.55;44.89
67502;SHT30;54349;52.528;19.760;2023-10-08T09:08:17;21.55;44.71
67502;SHT30;54349;52.528;19.760;2023-10-08T09:10:47;21.55;44.03
67502;SHT30;54349;52.528;19.760;2023-10-08T09:13:24;21.54;44.29
67502;SHT30;54349;52.528;19.760;2023-10-08T09:18:36;21.57;44.67
67502;SHT30;54349;52.528;19.760;2023-10-08T09:21:09;21.57;44.68
67502;SHT30;54349;52.528;19.760;2023-10-08T09:23:42;21.60;44.72
67502;SHT30;54349;52.528;19.760;2023-10-08T09:26:13;21.63;44.87
67502;SHT30;54349;52.528;19.760;2023-10-08T09:28:45;21.65;44.42
67502;SHT30;54349;52.528;19.760;2023-10-08T09:31:14;21.67;44.25
67502;SHT30;54349;52.528;19.760;2023-10-08T09:33:54;21.71;44.30
67502;SHT30;54349;52.528;19.760;2023-10-08T09:36:25;21.76;44.49
67502;SHT30;54349;52.528;19.760;2023-10-08T09:39:01;21.79;44.02
67502;SHT30;54349;52.528;19.760;2023-10-08T09:41:34;21.82;44.36
67502;SHT30;54349;52.528;19.760;2023-10-08T09:44:06;21.87;44.28
67502;SHT30;54349;52.528;19.760;2023-10-08T09:46:40;21.89;43.80
67502;SHT30;54349;52.528;19.760;2023-10-08T09:49:12;21.92;43.70
67502;SHT30;54349;52.528;19.760;2023-10-08T09:51:44;21.96;43.31
67502;SHT30;54349;52.528;19.760;2023-10-08T09:54:24;21.98;43.11
67502;SHT30;54349;52.528;19.760;2023-10-08T09:57:06;21.99;42.78
67502;SHT30;54349;52.528;19.760;2023-10-08T09:59:35;22.00;42.77
67502;SHT30;54349;52.528;19.760;2023-10-08T10:02:13;22.04;42.44
67502;SHT30;54349;52.528;19.760;2023-10-08T10:04:43;22.06;42.27
67502;SHT30;54349;52.528;19.760;2023-10-08T10:07:14;22.08;42.30
67502;SHT30;54349;52.528;19.760;2023-10-08T10:09:51;22.12;42.41
67502;SHT30;54349;52.528;19.760;2023-10-08T10:12:26;22.15;42.31
67502;SHT30;54349;52.528;19.760;2023-10-08T10:14:56;22.18;41.95
67502;SHT30;54349;52.528;19.760;2023-10-08T10:17:26;22.19;41.67
67502;SHT30;54349;52.528;19.760;2023-10-08T10:20:12;22.22;41.32
67502;SHT30;54349;52.528;19.760;2023-10-08T10:22:48;22.26;41.95
67502;SHT30;54349;52.528;19.760;2023-10-08T10:25:18;22.30;41.85
67502;SHT30;54349;52.528;19.760;2023-10-08T10:28:21;22.34;41.87
67502;SHT30;54349;52.528;19.760;2023-10-08T10:30:50;22.38;41.86
67502;SHT30;54349;52.528;19.760;2023-10-08T10:33:20;22.39;41.45
67502;SHT30;54349;52.528;19.760;2023-10-08T10:36:00;22.41;41.42
67502;SHT30;54349;52.528;19.760;2023-10-08T10:38:30;22.44;41.41
67502;SHT30;54349;52.528;19.760;2023-10-08T10:41:03;22.46;41.27
67502;SHT30;54349;52.528;19.760;2023-10-08T10:43:36;22.47;40.84
67502;SHT30;54349;52.528;19.760;2023-10-08T10:46:07;22.49;40.54
67502;SHT30;54349;52.528;19.760;2023-10-08T10:48:55;22.51;40.96
67502;SHT30;54349;52.528;19.760;2023-10-08T10:51:47;22.55;41.23
67502;SHT30;54349;52.528;19.760;2023-10-08T10:54:26;22.57;41.48
67502;SHT30;54349;52.528;19.760;2023-10-08T10:57:03;22.61;41.87
67502;SHT30;54349;52.528;19.760;2023-10-08T10:59:45;22.66;42.14
67502;SHT30;54349;52.528;19.760;2023-10-08T11:02:21;22.70;42.43
67502;SHT30;54349;52.528;19.760;2023-10-08T11:04:59;22.73;42.29
67502;SHT30;54349;52.528;19.760;2023-10-08T11:07:35;22.75;42.42
67502;SHT30;54349;52.528;19.760;2023-10-08T11:10:09;22.80;42.51
67502;SHT30;54349;52.528;19.760;2023-10-08T11:12:43;22.84;42.81
67502;SHT30;54349;52.528;19.760;2023-10-08T11:15:20;22.87;42.54
67502;SHT30;54349;52.528;19.760;2023-10-08T11:17:51;22.89;42.89
67502;SHT30;54349;52.528;19.760;2023-10-08T11:20:27;22.92;43.57
67502;SHT30;54349;52.528;19.760;2023-10-08T11:22:57;22.95;43.92
67502;SHT30;54349;52.528;19.760;2023-10-08T11:25:55;22.98;43.80
67502;SHT30;54349;52.528;19.760;2023-10-08T11:28:32;22.99;42.74
67502;SHT30;54349;52.528;19.760;2023-10-08T11:31:17;23.00;42.84
67502;SHT30;54349;52.528;19.760;2023-10-08T11:33:48;23.02;43.30
67502;SHT30;54349;52.528;19.760;2023-10-08T11:36:23;23.05;43.45
67502;SHT30;54349;52.528;19.760;2023-10-08T11:39:09;23.07;43.73
67502;SHT30;54349;52.528;19.760;2023-10-08T11:41:57;23.10;43.89
67502;SHT30;54349;52.528;19.760;2023-10-08T11:44:52;23.12;43.25
67502;SHT30;54349;52.528;19.760;2023-10-08T11:47:21;23.13;43.10
67502;SHT30;54349;52.528;19.760;2023-10-08T11:49:50;23.15;43.10
67502;SHT30;54349;52.528;19.760;2023-10-08T11:52:22;23.18;43.31
67502;SHT30;54349;52.528;19.760;2023-10-08T11:54:51;23.19;42.91
67502;SHT30;54349;52.528;19.760;2023-10-08T11:57:21;23.20;42.61
67502;SHT30;54349;52.528;19.760;2023-10-08T11:59:50;23.21;42.98
67502;SHT30;54349;52.528;19.760;2023-10-08T12:02:23;23.22;42.79
67502;SHT30;54349;52.528;19.760;2023-10-08T12:04:51;23.25;43.22
67502;SHT30;54349;52.528;19.760;2023-10-08T12:07:20;23.26;43.09
67502;SHT30;54349;52.528;19.760;2023-10-08T12:09:50;23.26;42.22
67502;SHT30;54349;52.528;19.760;2023-10-08T12:12:20;23.26;41.85
67502;SHT30;54349;52.528;19.760;2023-10-08T12:14:50;23.27;41.49
67502;SHT30;54349;52.528;19.760;2023-10-08T12:17:22;23.27;42.02
67502;SHT30;54349;52.528;19.760;2023-10-08T12:20:06;23.31;42.28
67502;SHT30;54349;52.528;19.760;2023-10-08T12:22:51;23.32;42.60
67502;SHT30;54349;52.528;19.760;2023-10-08T12:25:20;23.33;42.89
67502;SHT30;54349;52.528;19.760;2023-10-08T12:27:48;23.36;42.98
67502;SHT30;54349;52.528;19.760;2023-10-08T12:30:17;23.40;42.63
67502;SHT30;54349;52.528;19.760;2023-10-08T12:32:46;23.44;42.04
67502;SHT30;54349;52.528;19.760;2023-10-08T12:35:14;23.47;41.29
67502;SHT30;54349;52.528;19.760;2023-10-08T12:37:43;23.49;41.13
67502;SHT30;54349;52.528;19.760;2023-10-08T12:40:11;23.51;40.87
67502;SHT30;54349;52.528;19.760;2023-10-08T12:42:40;23.51;39.94
67502;SHT30;54349;52.528;19.760;2023-10-08T12:45:12;23.51;39.87
67502;SHT30;54349;52.528;19.760;2023-10-08T12:47:40;23.50;38.92
67502;SHT30;54349;52.528;19.760;2023-10-08T12:50:10;23.49;38.24
67502;SHT30;54349;52.528;19.760;2023-10-08T12:52:43;23.48;37.64
67502;SHT30;54349;52.528;19.760;2023-10-08T12:55:23;23.47;37.41
67502;SHT30;54349;52.528;19.760;2023-10-08T12:57:52;23.46;36.92
67502;SHT30;54349;52.528;19.760;2023-10-08T13:00:31;23.43;36.76
67502;SHT30;54349;52.528;19.760;2023-10-08T13:03:00;23.41;36.24
67502;SHT30;54349;52.528;19.760;2023-10-08T13:05:33;23.41;36.34
67502;SHT30;54349;52.528;19.760;2023-10-08T13:08:02;23.41;36.10
67502;SHT30;54349;52.528;19.760;2023-10-08T13:10:37;23.41;36.11
67502;SHT30;54349;52.528;19.760;2023-10-08T13:13:12;23.41;36.03
67502;SHT30;54349;52.528;19.760;2023-10-08T13:15:41;23.41;36.10
67502;SHT30;54349;52.528;19.760;2023-10-08T13:18:09;23.41;36.05
67502;SHT30;54349;52.528;19.760;2023-10-08T13:20:38;23.42;36.20
67502;SHT30;54349;52.528;19.760;2023-10-08T13:23:09;23.43;36.35
67502;SHT30;54349;52.528;19.760;2023-10-08T13:25:37;23.43;36.14
67502;SHT30;54349;52.528;19.760;2023-10-08T13:28:07;23.44;36.03
67502;SHT30;54349;52.528;19.760;2023-10-08T13:30:37;23.41;35.53
67502;SHT30;54349;52.528;19.760;2023-10-08T13:33:06;23.39;35.25
67502;SHT30;54349;52.528;19.760;2023-10-08T13:35:36;23.37;34.82
67502;SHT30;54349;52.528;19.760;2023-10-08T13:38:05;23.33;34.65
67502;SHT30;54349;52.528;19.760;2023-10-08T13:40:38;23.32;34.54
67502;SHT30;54349;52.528;19.760;2023-10-08T13:43:12;23.29;34.35
67502;SHT30;54349;52.528;19.760;2023-10-08T13:45:40;23.28;34.28
67502;SHT30;54349;52.528;19.760;2023-10-08T13:48:09;23.26;34.28
67502;SHT30;54349;52.528;19.760;2023-10-08T13:50:42;23.25;34.44
67502;SHT30;54349;52.528;19.760;2023-10-08T13:53:11;23.26;34.68
67502;SHT30;54349;52.528;19.760;2023-10-08T13:55:41;23.27;34.95
67502;SHT30;54349;52.528;19.760;2023-10-08T13:58:13;23.27;35.15
67502;SHT30;54349;52.528;19.760;2023-10-08T14:00:41;23.27;35.30
67502;SHT30;54349;52.528;19.760;2023-10-08T14:03:09;23.27;35.46
67502;SHT30;54349;52.528;19.760;2023-10-08T14:05:39;23.27;35.33
67502;SHT30;54349;52.528;19.760;2023-10-08T14:08:08;23.25;34.81
67502;SHT30;54349;52.528;19.760;2023-10-08T14:10:44;23.22;34.34
67502;SHT30;54349;52.528;19.760;2023-10-08T14:13:16;23.20;33.99
67502;SHT30;54349;52.528;19.760;2023-10-08T14:15:47;23.16;33.66
67502;SHT30;54349;52.528;19.760;2023-10-08T14:18:24;23.14;33.67
67502;SHT30;54349;52.528;19.760;2023-10-08T14:20:56;23.12;33.31
67502;SHT30;54349;52.528;19.760;2023-10-08T14:23:25;23.09;33.10
67502;SHT30;54349;52.528;19.760;2023-10-08T14:25:56;23.06;33.16
67502;SHT30;54349;52.528;19.760;2023-10-08T14:28:31;23.05;33.03
67502;SHT30;54349;52.528;19.760;2023-10-08T14:31:34;23.01;32.64
67502;SHT30;54349;52.528;19.760;2023-10-08T14:34:07;22.98;32.44
67502;SHT30;54349;52.528;19.760;2023-10-08T14:36:48;22.95;32.25
67502;SHT30;54349;52.528;19.760;2023-10-08T14:39:36;22.92;32.48
67502;SHT30;54349;52.528;19.760;2023-10-08T14:42:23;22.91;32.31
67502;SHT30;54349;52.528;19.760;2023-10-08T14:45:10;22.88;32.18
67502;SHT30;54349;52.528;19.760;2023-10-08T14:47:41;22.86;32.09
67502;SHT30;54349;52.528;19.760;2023-10-08T14:50:09;22.84;32.18
67502;SHT30;54349;52.528;19.760;2023-10-08T14:52:44;22.83;32.36
67502;SHT30;54349;52.528;19.760;2023-10-08T14:55:14;22.83;32.42
67502;SHT30;54349;52.528;19.760;2023-10-08T14:57:43;22.82;32.71
67502;SHT30;54349;52.528;19.760;2023-10-08T15:00:12;22.83;32.58
67502;SHT30;54349;52.528;19.760;2023-10-08T15:02:41;22.83;32.75
67502;SHT30;54349;52.528;19.760;2023-10-08T15:05:10;22.83;32.61
67502;SHT30;54349;52.528;19.760;2023-10-08T15:07:38;22.82;32.68
67502;SHT30;54349;52.528;19.760;2023-10-08T15:10:07;22.83;32.59
67502;SHT30;54349;52.528;19.760;2023-10-08T15:12:36;22.81;32.51
67502;SHT30;54349;52.528;19.760;2023-10-08T15:15:05;22.79;32.43
67502;SHT30;54349;52.528;19.760;2023-10-08T15:17:41;22.78;32.48
67502;SHT30;54349;52.528;19.760;2023-10-08T15:20:12;22.77;32.39
67502;SHT30;54349;52.528;19.760;2023-10-08T15:22:45;22.76;32.35
67502;SHT30;54349;52.528;19.760;2023-10-08T15:25:16;22.75;32.42
67502;SHT30;54349;52.528;19.760;2023-10-08T15:27:46;22.76;32.61
67502;SHT30;54349;52.528;19.760;2023-10-08T15:30:17;22.74;32.52
67502;SHT30;54349;52.528;19.760;2023-10-08T15:32:49;22.74;32.64
67502;SHT30;54349;52.528;19.760;2023-10-08T15:35:19;22.74;32.54
67502;SHT30;54349;52.528;19.760;2023-10-08T15:37:48;22.73;32.72
67502;SHT30;54349;52.528;19.760;2023-10-08T15:40:16;22.72;32.57
67502;SHT30;54349;52.528;19.760;2023-10-08T15:42:49;22.71;32.43
67502;SHT30;54349;52.528;19.760;2023-10-08T15:45:23;22.69;32.39
67502;SHT30;54349;52.528;19.760;2023-10-08T15:47:53;22.67;32.27
67502;SHT30;54349;52.528;19.760;2023-10-08T15:50:22;22.65;32.31
67502;SHT30;54349;52.528;19.760;2023-10-08T15:52:53;22.65;32.28
67502;SHT30;54349;52.528;19.760;2023-10-08T15:55:23;22.64;32.39
67502;SHT30;54349;52.528;19.760;2023-10-08T15:57:53;22.63;32.26
67502;SHT30;54349;52.528;19.760;2023-10-08T16:00:22;22.61;32.56
67502;SHT30;54349;52.528;19.760;2023-10-08T16:02:50;22.60;32.54